createdAt,value
2022-11-29T00:01:36.904Z,75.97
2022-11-29T00:04:04.508Z,76.04
2022-11-29T00:06:34.152Z,76.23
2022-11-29T00:09:08.267Z,76.38
2022-11-29T00:11:56.304Z,76.27
2022-11-29T00:14:24.947Z,76.49
2022-11-29T00:16:55.195Z,76.23
2022-11-29T00:19:22.633Z,75.98
2022-11-29T00:21:49.561Z,76.21
2022-11-29T00:24:16.493Z,76.28
2022-11-29T00:26:43.380Z,75.80
2022-11-29T00:29:12.991Z,75.58
2022-11-29T00:31:40.963Z,75.51
2022-11-29T00:34:10.336Z,75.69
2022-11-29T00:36:37.773Z,76.00
2022-11-29T00:39:05.912Z,76.01
2022-11-29T00:41:32.943Z,75.89
2022-11-29T00:44:00.412Z,76.19
2022-11-29T00:46:27.349Z,76.06
2022-11-29T00:48:54.200Z,75.80
2022-11-29T00:51:20.997Z,76.08
2022-11-29T00:53:47.899Z,76.10
2022-11-29T00:56:14.785Z,75.94
2022-11-29T00:58:43.499Z,76.01
2022-11-29T01:01:11.590Z,75.90
2022-11-29T01:03:38.631Z,75.98
2022-11-29T01:06:12.353Z,76.32
2022-11-29T01:08:40.030Z,76.22
2022-11-29T01:11:33.366Z,76.29
2022-11-29T01:14:02.747Z,75.84
2022-11-29T01:16:31.048Z,75.89
2022-11-29T01:18:57.971Z,76.01
2022-11-29T01:21:25.328Z,75.94
2022-11-29T01:23:54.344Z,76.06
2022-11-29T01:26:25.346Z,76.17
2022-11-29T01:28:54.650Z,76.39
2022-11-29T01:31:28.547Z,76.23
2022-11-29T01:33:57.305Z,76.16
2022-11-29T01:36:25.149Z,75.71
2022-11-29T01:38:52.644Z,75.88
2022-11-29T01:41:26.559Z,76.14
2022-11-29T01:43:59.343Z,75.94
2022-11-29T01:46:28.903Z,76.40
2022-11-29T01:49:14.286Z,76.26
2022-11-29T01:51:46.185Z,76.24
2022-11-29T01:54:14.948Z,76.61
2022-11-29T01:56:43.052Z,76.15
2022-11-29T01:59:14.539Z,76.27
2022-11-29T02:01:41.509Z,76.16
2022-11-29T02:04:09.119Z,76.17
2022-11-29T02:06:37.387Z,76.51
2022-11-29T02:09:04.667Z,76.63
2022-11-29T02:12:07.453Z,76.56
2022-11-29T02:15:05.434Z,76.69
2022-11-29T02:17:40.711Z,76.19
2022-11-29T02:20:52.336Z,76.59
2022-11-29T02:23:47.331Z,76.38
2022-11-29T02:26:33.915Z,76.34
2022-11-29T02:29:33.708Z,76.35
2022-11-29T02:32:19.103Z,76.45
2022-11-29T02:34:54.316Z,76.41
2022-11-29T02:37:48.858Z,76.58
2022-11-29T02:40:58.359Z,76.63
2022-11-29T02:43:58.676Z,76.70
2022-11-29T02:47:02.511Z,76.35
2022-11-29T02:50:11.204Z,75.88
2022-11-29T02:53:01.309Z,76.45
2022-11-29T02:55:48.062Z,75.87
2022-11-29T02:58:34.069Z,75.75
2022-11-29T03:01:24.984Z,76.09
2022-11-29T03:04:30.033Z,75.91
2022-11-29T03:07:16.211Z,75.78
2022-11-29T03:10:02.763Z,75.58
2022-11-29T03:12:39.421Z,76.40
2022-11-29T03:15:38.996Z,75.86
2022-11-29T03:18:39.869Z,76.00
2022-11-29T03:21:36.063Z,75.88
2022-11-29T03:24:16.702Z,75.67
2022-11-29T03:26:49.907Z,75.27
2022-11-29T03:29:59.302Z,75.54
2022-11-29T03:32:45.504Z,75.61
2022-11-29T03:35:24.809Z,75.96
2022-11-29T03:38:17.019Z,75.65
2022-11-29T03:41:08.128Z,75.72
2022-11-29T03:44:05.471Z,76.32
2022-11-29T03:46:58.579Z,75.98
2022-11-29T03:49:54.600Z,75.91
2022-11-29T03:52:42.529Z,76.13
2022-11-29T03:55:12.340Z,76.05
2022-11-29T03:58:10.728Z,76.17
2022-11-29T04:01:39.325Z,75.86
2022-11-29T04:05:09.458Z,75.98
2022-11-29T04:08:05.923Z,76.16
2022-11-29T04:11:02.921Z,76.00
2022-11-29T04:14:03.820Z,75.85
2022-11-29T04:16:38.894Z,75.79
2022-11-29T04:19:28.687Z,76.02
2022-11-29T04:22:47.807Z,76.20
2022-11-29T04:25:41.297Z,75.90
2022-11-29T04:29:04.492Z,76.33
2022-11-29T04:32:08.892Z,76.23
2022-11-29T04:34:50.371Z,76.05
2022-11-29T04:37:45.884Z,75.93
2022-11-29T04:40:36.231Z,76.15
2022-11-29T04:43:35.518Z,75.80
2022-11-29T04:46:14.186Z,76.01
2022-11-29T04:49:13.199Z,75.52
2022-11-29T04:52:03.992Z,75.76
2022-11-29T04:54:55.010Z,75.69
2022-11-29T04:57:58.418Z,76.20
2022-11-29T05:00:25.355Z,75.98
2022-11-29T05:03:11.308Z,76.28
2022-11-29T05:05:51.230Z,76.15
2022-11-29T05:09:14.325Z,76.12
2022-11-29T05:12:05.342Z,75.85
2022-11-29T05:14:46.931Z,75.89
2022-11-29T05:17:47.555Z,75.86
2022-11-29T05:20:45.433Z,75.86
2022-11-29T05:24:10.010Z,75.92
2022-11-29T05:26:57.598Z,75.82
2022-11-29T05:30:23.719Z,75.96
2022-11-29T05:33:25.464Z,76.27
2022-11-29T05:35:53.091Z,76.16
2022-11-29T05:39:10.839Z,76.08
2022-11-29T05:42:06.552Z,76.31
2022-11-29T05:44:56.595Z,76.07
2022-11-29T05:47:36.751Z,76.05
2022-11-29T05:51:11.590Z,76.35
2022-11-29T05:54:26.033Z,76.21
2022-11-29T05:57:17.389Z,76.04
2022-11-29T05:59:46.369Z,76.09
2022-11-29T06:02:59.201Z,76.41
2022-11-29T06:05:39.557Z,75.97
2022-11-29T06:08:41.931Z,76.23
2022-11-29T06:11:40.096Z,76.21
2022-11-29T06:15:01.857Z,76.33
2022-11-29T06:17:55.191Z,76.60
2022-11-29T06:21:01.554Z,76.53
2022-11-29T06:23:43.684Z,76.07
2022-11-29T06:26:36.254Z,76.10
2022-11-29T06:29:23.923Z,76.40
2022-11-29T06:32:32.917Z,76.24
2022-11-29T06:35:28.151Z,76.55
2022-11-29T06:37:58.422Z,76.67
2022-11-29T06:40:25.869Z,76.59
2022-11-29T06:42:52.725Z,76.48
2022-11-29T06:45:21.752Z,76.69
2022-11-29T06:48:04.485Z,76.49
2022-11-29T06:51:02.031Z,76.18
2022-11-29T06:54:18.232Z,76.15
2022-11-29T06:57:20.821Z,76.28
2022-11-29T07:00:06.506Z,76.44
2022-11-29T07:03:14.308Z,76.47
2022-11-29T07:05:41.821Z,76.47
2022-11-29T07:08:18.819Z,76.47
2022-11-29T07:10:49.978Z,76.37
2022-11-29T07:13:18.325Z,76.62
2022-11-29T07:16:12.587Z,76.51
2022-11-29T07:18:54.534Z,76.20
2022-11-29T07:22:10.597Z,76.29
2022-11-29T07:25:11.361Z,76.21
2022-11-29T07:28:22.442Z,75.88
2022-11-29T07:31:28.930Z,75.87
2022-11-29T07:34:20.296Z,75.79
2022-11-29T07:37:18.805Z,75.58
2022-11-29T07:40:02.539Z,75.71
2022-11-29T07:42:51.034Z,75.82
2022-11-29T07:45:36.066Z,75.39
2022-11-29T07:48:03.697Z,75.39
2022-11-29T07:50:31.748Z,75.47
2022-11-29T07:52:59.785Z,75.18
2022-11-29T07:55:27.822Z,75.56
2022-11-29T07:57:54.654Z,75.63
2022-11-29T08:00:22.311Z,75.46
2022-11-29T08:02:50.532Z,75.42
2022-11-29T08:05:17.970Z,75.28
2022-11-29T08:07:46.348Z,74.78
2022-11-29T08:10:16.718Z,74.67
2022-11-29T08:12:50.290Z,74.80
2022-11-29T08:15:22.194Z,74.73
2022-11-29T08:17:49.640Z,74.65
2022-11-29T08:20:17.351Z,75.04
2022-11-29T08:22:44.230Z,74.67
2022-11-29T08:25:11.672Z,75.10
2022-11-29T08:27:38.994Z,74.70
2022-11-29T08:30:07.239Z,74.60
2022-11-29T08:32:34.989Z,74.90
2022-11-29T08:35:01.985Z,74.63
2022-11-29T08:37:28.760Z,74.13
2022-11-29T08:39:56.135Z,74.66
2022-11-29T08:42:22.907Z,73.91
2022-11-29T08:44:49.737Z,74.34
2022-11-29T08:47:35.143Z,73.79
2022-11-29T08:50:17.369Z,73.88
2022-11-29T08:53:06.153Z,73.70
2022-11-29T08:55:37.298Z,73.45
2022-11-29T08:58:07.839Z,73.23
2022-11-29T09:00:35.367Z,73.24
2022-11-29T09:03:23.604Z,73.27
2022-11-29T09:05:51.046Z,73.37
2022-11-29T09:08:18.287Z,73.40
2022-11-29T09:10:45.237Z,73.53
2022-11-29T09:13:12.885Z,74.02
2022-11-29T09:15:42.202Z,73.24
2022-11-29T09:18:09.223Z,73.19
2022-11-29T09:20:36.349Z,73.07
2022-11-29T09:23:03.143Z,73.42
2022-11-29T09:25:30.108Z,73.27
2022-11-29T09:28:01.272Z,72.91
2022-11-29T09:30:31.277Z,73.08
2022-11-29T09:33:02.619Z,72.97
2022-11-29T09:35:29.934Z,73.24
2022-11-29T09:37:56.775Z,73.10
2022-11-29T09:40:32.591Z,73.05
2022-11-29T09:43:50.435Z,73.16
2022-11-29T09:46:22.972Z,72.91
2022-11-29T09:49:19.744Z,73.20
2022-11-29T09:52:08.281Z,73.16
2022-11-29T09:55:31.636Z,72.88
2022-11-29T09:58:01.220Z,72.64
2022-11-29T10:00:31.154Z,73.57
2022-11-29T10:03:26.700Z,73.36
2022-11-29T10:06:22.143Z,73.00
2022-11-29T10:09:04.647Z,73.21
2022-11-29T10:11:56.266Z,73.39
2022-11-29T10:14:35.847Z,73.28
2022-11-29T10:17:40.685Z,73.67
2022-11-29T10:20:26.583Z,73.25
2022-11-29T10:23:01.410Z,72.87
2022-11-29T10:25:39.026Z,73.12
2022-11-29T10:28:13.831Z,73.43
2022-11-29T10:30:43.065Z,72.67
2022-11-29T10:33:25.595Z,73.01
2022-11-29T10:35:58.958Z,73.56
2022-11-29T10:38:31.189Z,72.87
2022-11-29T10:41:08.760Z,72.67
2022-11-29T10:43:37.384Z,72.59
2022-11-29T10:46:06.199Z,72.79
2022-11-29T10:48:34.721Z,73.26
2022-11-29T10:51:02.409Z,72.99
2022-11-29T10:53:37.446Z,73.50
2022-11-29T10:56:29.457Z,73.34
2022-11-29T10:58:57.979Z,73.43
2022-11-29T11:01:28.872Z,73.67
2022-11-29T11:03:58.038Z,72.83
2022-11-29T11:06:28.597Z,72.62
2022-11-29T11:09:12.420Z,72.51
2022-11-29T11:11:39.751Z,72.40
2022-11-29T11:14:25.655Z,72.35
2022-11-29T11:16:52.777Z,72.81
2022-11-29T11:19:30.826Z,72.86
2022-11-29T11:22:03.556Z,72.64
2022-11-29T11:24:33.783Z,72.98
2022-11-29T11:27:01.519Z,73.29
2022-11-29T11:29:45.374Z,73.12
2022-11-29T11:32:19.159Z,73.16
2022-11-29T11:34:59.454Z,73.37
2022-11-29T11:37:35.570Z,73.14
2022-11-29T11:40:29.181Z,72.99
2022-11-29T11:43:00.684Z,72.50
2022-11-29T11:45:35.563Z,72.69
2022-11-29T11:48:12.613Z,72.80
2022-11-29T11:50:52.274Z,72.84
2022-11-29T11:53:35.707Z,71.80
2022-11-29T11:56:10.919Z,71.98
2022-11-29T11:58:49.635Z,71.64
2022-11-29T12:01:36.328Z,72.20
2022-11-29T12:04:07.408Z,72.19
2022-11-29T12:06:58.900Z,72.33
2022-11-29T12:09:45.577Z,72.44
2022-11-29T12:12:27.407Z,72.26
2022-11-29T12:15:07.529Z,72.41
2022-11-29T12:17:41.911Z,72.21
2022-11-29T12:20:36.673Z,72.06
2022-11-29T12:23:12.254Z,71.24
2022-11-29T12:26:34.833Z,71.66
2022-11-29T12:29:16.209Z,71.52
2022-11-29T12:32:15.808Z,71.70
2022-11-29T12:34:50.258Z,71.56
2022-11-29T12:37:43.797Z,71.91
2022-11-29T12:41:06.575Z,71.62
2022-11-29T12:43:51.423Z,72.15
2022-11-29T12:46:26.286Z,72.30
2022-11-29T12:49:27.358Z,72.47
2022-11-29T12:52:39.406Z,72.21
2022-11-29T12:55:57.315Z,72.55
2022-11-29T12:58:40.099Z,72.08
2022-11-29T13:01:17.283Z,71.78
2022-11-29T13:04:08.089Z,71.97
2022-11-29T13:07:10.148Z,71.88
2022-11-29T13:10:18.205Z,72.30
2022-11-29T13:13:08.744Z,72.15
2022-11-29T13:15:56.593Z,72.77
2022-11-29T13:18:37.605Z,73.14
2022-11-29T13:21:15.848Z,72.99
2022-11-29T13:24:10.685Z,72.21
2022-11-29T13:26:40.684Z,72.05
2022-11-29T13:29:17.039Z,72.14
2022-11-29T13:31:46.093Z,71.45
2022-11-29T13:34:17.105Z,71.56
2022-11-29T13:37:23.813Z,71.56
2022-11-29T13:40:31.408Z,72.95
2022-11-29T13:43:40.191Z,72.63
2022-11-29T13:47:03.354Z,73.00
2022-11-29T13:49:53.749Z,73.56
2022-11-29T13:52:39.186Z,73.00
2022-11-29T13:55:09.948Z,73.68
2022-11-29T13:58:16.630Z,73.46
2022-11-29T14:00:44.370Z,73.75
2022-11-29T14:03:38.609Z,73.00
2022-11-29T14:06:18.601Z,73.29
2022-11-29T14:11:42.960Z,73.05
2022-11-29T14:14:29.533Z,73.43
2022-11-29T14:17:02.054Z,73.40
2022-11-29T14:19:35.061Z,73.39
2022-11-29T14:22:01.804Z,73.54
2022-11-29T14:24:37.278Z,72.90
2022-11-29T14:27:07.594Z,73.67
2022-11-29T14:29:55.227Z,73.43
2022-11-29T14:32:49.771Z,73.60
2022-11-29T14:35:45.619Z,73.65
2022-11-29T14:38:42.425Z,73.58
2022-11-29T14:41:50.999Z,73.71
2022-11-29T14:44:22.331Z,73.66
2022-11-29T14:47:03.102Z,73.88
2022-11-29T14:49:32.123Z,73.55
2022-11-29T14:52:12.766Z,73.50
2022-11-29T14:55:28.832Z,73.78
2022-11-29T14:58:03.574Z,73.38
2022-11-29T15:00:35.149Z,73.81
2022-11-29T15:03:20.540Z,73.43
2022-11-29T15:06:07.719Z,73.60
2022-11-29T15:08:46.938Z,73.90
2022-11-29T15:11:31.401Z,73.89
2022-11-29T15:14:15.383Z,73.89
2022-11-29T15:17:19.728Z,73.87
2022-11-29T15:20:19.597Z,73.71
2022-11-29T15:22:52.436Z,73.92
2022-11-29T15:25:31.063Z,74.23
2022-11-29T15:28:06.087Z,74.13
2022-11-29T15:30:41.410Z,74.11
2022-11-29T15:33:29.191Z,74.17
2022-11-29T15:36:07.634Z,74.85
2022-11-29T15:38:54.869Z,74.70
2022-11-29T15:41:30.782Z,74.47
2022-11-29T15:44:05.710Z,74.66
2022-11-29T15:46:35.289Z,74.48
2022-11-29T15:49:27.884Z,75.03
2022-11-29T15:52:00.930Z,74.77
2022-11-29T15:54:47.364Z,75.20
2022-11-29T15:57:38.968Z,75.18
2022-11-29T16:00:12.052Z,74.92
2022-11-29T16:02:46.258Z,74.78
2022-11-29T16:05:25.379Z,74.34
2022-11-29T16:07:57.810Z,74.46
2022-11-29T16:10:52.793Z,74.67
2022-11-29T16:13:25.768Z,74.27
2022-11-29T16:16:19.023Z,74.50
2022-11-29T16:18:48.803Z,74.08
2022-11-29T16:21:32.686Z,74.49
2022-11-29T16:24:19.584Z,74.65
2022-11-29T16:26:49.017Z,74.53
2022-11-29T16:29:45.176Z,74.63
2022-11-29T16:32:35.110Z,74.67
2022-11-29T16:35:22.240Z,74.88
2022-11-29T16:37:49.349Z,75.15
2022-11-29T16:40:31.407Z,74.85
2022-11-29T16:43:04.398Z,74.84
2022-11-29T16:45:37.995Z,74.92
2022-11-29T16:48:26.591Z,75.21
2022-11-29T16:51:16.227Z,75.13
2022-11-29T16:53:53.291Z,74.74
2022-11-29T16:56:26.184Z,74.52
2022-11-29T16:59:20.542Z,74.47
2022-11-29T17:01:44.637Z,74.72
2022-11-29T17:04:11.501Z,74.38
2022-11-29T17:06:38.410Z,74.71
2022-11-29T17:09:05.893Z,74.60
2022-11-29T17:11:33.072Z,74.42
2022-11-29T17:13:59.863Z,74.16
2022-11-29T17:16:27.054Z,74.07
2022-11-29T17:18:53.956Z,74.28
2022-11-29T17:21:29.438Z,74.19
2022-11-29T17:23:56.298Z,74.46
2022-11-29T17:26:24.211Z,75.35
2022-11-29T17:28:52.299Z,74.70
2022-11-29T17:31:22.799Z,74.66
2022-11-29T17:33:50.270Z,74.65
2022-11-29T17:36:20.271Z,74.75
2022-11-29T17:38:48.045Z,74.88
2022-11-29T17:41:24.299Z,74.56
2022-11-29T17:43:53.428Z,74.85
2022-11-29T17:46:26.604Z,74.93
2022-11-29T17:49:12.115Z,74.77
2022-11-29T17:51:51.776Z,74.85
2022-11-29T17:54:19.388Z,75.03
2022-11-29T17:56:46.226Z,74.66
2022-11-29T17:59:12.999Z,74.59
2022-11-29T18:01:39.916Z,74.68
2022-11-29T18:04:08.278Z,74.71
2022-11-29T18:06:38.393Z,74.72
2022-11-29T18:09:08.619Z,74.76
2022-11-29T18:11:46.996Z,74.61
2022-11-29T18:14:18.715Z,74.89
2022-11-29T18:16:45.897Z,75.14
2022-11-29T18:19:17.449Z,75.24
2022-11-29T18:21:44.463Z,74.83
2022-11-29T18:24:11.772Z,74.78
2022-11-29T18:26:39.523Z,75.10
2022-11-29T18:29:07.772Z,75.15
2022-11-29T18:31:38.385Z,74.80
2022-11-29T18:34:09.649Z,75.04
2022-11-29T18:36:43.050Z,74.94
2022-11-29T18:39:16.582Z,74.77
2022-11-29T18:41:46.669Z,75.53
2022-11-29T18:44:16.777Z,75.26
2022-11-29T18:46:45.088Z,74.75
2022-11-29T18:49:15.292Z,74.84
2022-11-29T18:51:44.573Z,74.73
2022-11-29T18:54:12.493Z,74.67
2022-11-29T18:56:39.861Z,74.64
2022-11-29T18:59:16.906Z,74.78
2022-11-29T19:01:46.142Z,74.94
2022-11-29T19:04:16.859Z,74.60
2022-11-29T19:06:44.335Z,74.76
2022-11-29T19:09:18.447Z,74.86
2022-11-29T19:11:45.270Z,74.65
2022-11-29T19:14:12.939Z,74.67
2022-11-29T19:16:46.207Z,74.73
2022-11-29T19:19:13.497Z,74.63
2022-11-29T19:21:41.339Z,74.55
2022-11-29T19:24:14.563Z,74.33
2022-11-29T19:26:47.059Z,74.10
2022-11-29T19:29:15.210Z,74.25
2022-11-29T19:31:42.571Z,74.24
2022-11-29T19:34:09.574Z,74.07
2022-11-29T19:36:42.299Z,73.79
2022-11-29T19:39:10.074Z,73.16
2022-11-29T19:41:37.817Z,73.67
2022-11-29T19:44:07.683Z,73.77
2022-11-29T19:46:40.998Z,73.19
2022-11-29T19:49:09.382Z,73.19
2022-11-29T19:51:36.902Z,73.01
2022-11-29T19:54:07.413Z,72.74
2022-11-29T19:56:34.343Z,72.69
2022-11-29T19:59:01.269Z,72.69
2022-11-29T20:01:37.894Z,72.76
2022-11-29T20:04:06.669Z,72.66
2022-11-29T20:06:33.570Z,72.63
2022-11-29T20:09:00.407Z,72.61
2022-11-29T20:11:27.377Z,72.64
2022-11-29T20:14:05.595Z,72.75
2022-11-29T20:16:33.438Z,73.11
2022-11-29T20:19:01.546Z,72.87
2022-11-29T20:21:32.269Z,72.82
2022-11-29T20:24:05.841Z,72.67
2022-11-29T20:26:36.055Z,72.92
2022-11-29T20:29:05.563Z,72.96
2022-11-29T20:31:35.043Z,73.16
2022-11-29T20:34:02.030Z,73.07
2022-11-29T20:37:07.279Z,73.04
2022-11-29T20:39:52.501Z,72.89
2022-11-29T20:42:44.459Z,73.22
2022-11-29T20:45:13.892Z,73.11
2022-11-29T20:47:48.561Z,73.09
2022-11-29T20:50:23.758Z,73.01
2022-11-29T20:53:20.022Z,73.31
2022-11-29T20:55:49.301Z,73.33
2022-11-29T20:58:18.222Z,73.39
2022-11-29T21:00:46.159Z,73.42
2022-11-29T21:03:18.140Z,73.38
2022-11-29T21:05:45.648Z,73.68
2022-11-29T21:08:13.372Z,73.25
2022-11-29T21:10:40.469Z,73.65
2022-11-29T21:13:07.961Z,73.88
2022-11-29T21:15:35.370Z,74.04
2022-11-29T21:18:02.673Z,74.61
2022-11-29T21:20:29.848Z,74.61
2022-11-29T21:23:06.246Z,74.79
2022-11-29T21:25:59.680Z,75.04
2022-11-29T21:28:34.987Z,74.80
2022-11-29T21:31:02.169Z,74.44
2022-11-29T21:33:29.500Z,74.56
2022-11-29T21:35:59.552Z,74.43
2022-11-29T21:38:28.880Z,74.22
2022-11-29T21:40:55.661Z,73.76
2022-11-29T21:43:28.732Z,74.21
2022-11-29T21:46:09.413Z,74.45
2022-11-29T21:48:37.684Z,74.08
2022-11-29T21:51:09.876Z,74.30
2022-11-29T21:53:38.122Z,74.01
2022-11-29T21:56:08.556Z,74.02
2022-11-29T21:58:38.384Z,74.09
2022-11-29T22:01:14.781Z,73.75
2022-11-29T22:03:42.287Z,74.06
2022-11-29T22:06:13.462Z,73.77
2022-11-29T22:08:41.594Z,74.10
2022-11-29T22:11:15.134Z,73.96
2022-11-29T22:14:03.108Z,73.91
2022-11-29T22:16:30.205Z,73.51
2022-11-29T22:18:57.169Z,73.61
2022-11-29T22:21:24.047Z,73.70
2022-11-29T22:23:52.608Z,73.23
2022-11-29T22:26:19.513Z,73.58
2022-11-29T22:28:46.338Z,73.30
2022-11-29T22:31:13.463Z,73.28
2022-11-29T22:33:40.570Z,72.93
2022-11-29T22:36:11.249Z,72.84
2022-11-29T22:38:39.189Z,72.64
2022-11-29T22:41:09.870Z,73.13
2022-11-29T22:43:37.876Z,72.71
2022-11-29T22:46:20.258Z,72.46
2022-11-29T22:48:50.725Z,73.21
2022-11-29T22:51:20.921Z,72.81
2022-11-29T22:53:52.249Z,72.47
2022-11-29T22:56:19.453Z,72.74
2022-11-29T22:58:46.818Z,72.92
2022-11-29T23:01:20.339Z,72.62
2022-11-29T23:03:54.199Z,72.90
2022-11-29T23:06:31.123Z,72.59
2022-11-29T23:09:03.707Z,72.39
2022-11-29T23:11:31.373Z,72.65
2022-11-29T23:13:58.736Z,72.48
2022-11-29T23:16:29.435Z,72.35
2022-11-29T23:18:58.759Z,72.23
2022-11-29T23:21:32.153Z,72.16
2022-11-29T23:24:00.867Z,72.09
2022-11-29T23:26:37.374Z,72.20
2022-11-29T23:29:07.159Z,72.07
2022-11-29T23:31:34.304Z,71.63
2022-11-29T23:34:02.512Z,71.31
2022-11-29T23:36:29.571Z,71.44
2022-11-29T23:38:56.372Z,71.70
2022-11-29T23:41:23.221Z,71.50
2022-11-29T23:43:50.184Z,71.39
2022-11-29T23:46:20.659Z,72.07
2022-11-29T23:48:48.311Z,71.83
2022-11-29T23:51:16.858Z,71.59
2022-11-29T23:53:44.286Z,71.45
2022-11-29T23:56:15.479Z,71.42
2022-11-29T23:58:43.574Z,71.33
